sensor_id;sensor_type;location;lat;lon;timestamp;P1;durP1;ratioP1;P2;durP2;ratioP2
27895;SDS011;15241;48.374;10.876;2022-07-29T00:01:26;2.52;;;2.10;;
27895;SDS011;15241;48.374;10.876;2022-07-29T00:06:25;4.35;;;2.17;;
27895;SDS011;15241;48.374;10.876;2022-07-29T00:11:24;4.65;;;2.70;;
27895;SDS011;15241;48.374;10.876;2022-07-29T00:16:23;3.37;;;2.22;;
27895;SDS011;15241;48.374;10.876;2022-07-29T00:21:22;2.55;;;2.22;;
27895;SDS011;15241;48.374;10.876;2022-07-29T00:26:21;3.33;;;2.30;;
27895;SDS011;15241;48.374;10.876;2022-07-29T00:31:20;4.75;;;2.30;;
27895;SDS011;15241;48.374;10.876;2022-07-29T00:36:19;2.90;;;2.10;;
27895;SDS011;15241;48.374;10.876;2022-07-29T00:41:18;3.22;;;2.60;;
27895;SDS011;15241;48.374;10.876;2022-07-29T00:46:17;3.55;;;2.45;;
27895;SDS011;15241;48.374;10.876;2022-07-29T00:51:16;3.85;;;2.62;;
27895;SDS011;15241;48.374;10.876;2022-07-29T00:56:15;4.62;;;2.75;;
27895;SDS011;15241;48.374;10.876;2022-07-29T01:01:14;8.08;;;2.50;;
27895;SDS011;15241;48.374;10.876;2022-07-29T01:06:13;4.80;;;3.10;;
27895;SDS011;15241;48.374;10.876;2022-07-29T01:11:13;5.53;;;2.92;;
27895;SDS011;15241;48.374;10.876;2022-07-29T01:16:15;3.30;;;2.90;;
27895;SDS011;15241;48.374;10.876;2022-07-29T01:26:45;4.87;;;3.52;;
27895;SDS011;15241;48.374;10.876;2022-07-29T01:31:48;5.55;;;4.30;;
27895;SDS011;15241;48.374;10.876;2022-07-29T01:36:51;4.42;;;3.52;;
27895;SDS011;15241;48.374;10.876;2022-07-29T01:41:55;3.65;;;3.10;;
27895;SDS011;15241;48.374;10.876;2022-07-29T01:46:57;4.47;;;3.65;;
27895;SDS011;15241;48.374;10.876;2022-07-29T01:51:59;5.20;;;3.95;;
27895;SDS011;15241;48.374;10.876;2022-07-29T01:57:07;6.92;;;3.90;;
27895;SDS011;15241;48.374;10.876;2022-07-29T02:02:08;7.10;;;4.35;;
27895;SDS011;15241;48.374;10.876;2022-07-29T02:07:09;5.00;;;3.85;;
27895;SDS011;15241;48.374;10.876;2022-07-29T02:12:10;7.85;;;4.17;;
27895;SDS011;15241;48.374;10.876;2022-07-29T02:17:11;4.92;;;3.50;;
27895;SDS011;15241;48.374;10.876;2022-07-29T02:22:10;4.15;;;3.33;;
27895;SDS011;15241;48.374;10.876;2022-07-29T02:27:11;3.83;;;3.10;;
27895;SDS011;15241;48.374;10.876;2022-07-29T02:32:11;4.40;;;3.10;;
27895;SDS011;15241;48.374;10.876;2022-07-29T02:37:12;4.83;;;3.30;;
27895;SDS011;15241;48.374;10.876;2022-07-29T02:42:13;5.53;;;3.27;;
27895;SDS011;15241;48.374;10.876;2022-07-29T02:47:16;3.87;;;2.77;;
27895;SDS011;15241;48.374;10.876;2022-07-29T02:52:19;3.27;;;2.95;;
27895;SDS011;15241;48.374;10.876;2022-07-29T02:57:21;4.65;;;2.60;;
27895;SDS011;15241;48.374;10.876;2022-07-29T03:02:22;3.92;;;2.95;;
27895;SDS011;15241;48.374;10.876;2022-07-29T03:07:23;5.53;;;3.25;;
27895;SDS011;15241;48.374;10.876;2022-07-29T03:12:22;4.37;;;2.58;;
27895;SDS011;15241;48.374;10.876;2022-07-29T03:17:22;3.90;;;2.52;;
27895;SDS011;15241;48.374;10.876;2022-07-29T03:22:30;2.95;;;2.60;;
27895;SDS011;15241;48.374;10.876;2022-07-29T03:27:29;6.28;;;2.95;;
27895;SDS011;15241;48.374;10.876;2022-07-29T03:32:28;8.15;;;3.10;;
27895;SDS011;15241;48.374;10.876;2022-07-29T03:37:27;3.92;;;3.17;;
27895;SDS011;15241;48.374;10.876;2022-07-29T03:42:28;5.22;;;3.25;;
27895;SDS011;15241;48.374;10.876;2022-07-29T03:47:29;5.72;;;3.17;;
27895;SDS011;15241;48.374;10.876;2022-07-29T03:52:29;6.17;;;3.10;;
27895;SDS011;15241;48.374;10.876;2022-07-29T03:57:28;5.97;;;2.92;;
27895;SDS011;15241;48.374;10.876;2022-07-29T04:02:27;7.35;;;3.37;;
27895;SDS011;15241;48.374;10.876;2022-07-29T04:07:27;3.58;;;2.92;;
27895;SDS011;15241;48.374;10.876;2022-07-29T04:12:25;6.25;;;2.87;;
27895;SDS011;15241;48.374;10.876;2022-07-29T04:17:25;5.00;;;2.80;;
27895;SDS011;15241;48.374;10.876;2022-07-29T04:22:24;2.80;;;2.60;;
27895;SDS011;15241;48.374;10.876;2022-07-29T04:27:23;4.85;;;2.58;;
27895;SDS011;15241;48.374;10.876;2022-07-29T04:32:22;4.00;;;2.30;;
27895;SDS011;15241;48.374;10.876;2022-07-29T04:37:21;8.63;;;3.40;;
27895;SDS011;15241;48.374;10.876;2022-07-29T04:42:20;3.70;;;2.90;;
27895;SDS011;15241;48.374;10.876;2022-07-29T04:47:19;5.85;;;3.47;;
27895;SDS011;15241;48.374;10.876;2022-07-29T04:52:18;4.55;;;3.60;;
27895;SDS011;15241;48.374;10.876;2022-07-29T04:57:17;8.05;;;5.45;;
27895;SDS011;15241;48.374;10.876;2022-07-29T05:02:16;7.12;;;3.70;;
27895;SDS011;15241;48.374;10.876;2022-07-29T05:07:15;7.60;;;4.10;;
27895;SDS011;15241;48.374;10.876;2022-07-29T05:12:14;5.83;;;3.65;;
27895;SDS011;15241;48.374;10.876;2022-07-29T05:17:14;7.12;;;3.90;;
27895;SDS011;15241;48.374;10.876;2022-07-29T05:22:13;5.37;;;3.42;;
27895;SDS011;15241;48.374;10.876;2022-07-29T05:27:12;5.60;;;3.90;;
27895;SDS011;15241;48.374;10.876;2022-07-29T05:32:11;5.28;;;2.80;;
27895;SDS011;15241;48.374;10.876;2022-07-29T05:37:10;4.58;;;2.50;;
27895;SDS011;15241;48.374;10.876;2022-07-29T05:42:09;4.47;;;2.72;;
27895;SDS011;15241;48.374;10.876;2022-07-29T05:47:09;3.50;;;3.12;;
27895;SDS011;15241;48.374;10.876;2022-07-29T05:52:08;3.42;;;2.77;;
27895;SDS011;15241;48.374;10.876;2022-07-29T05:57:07;7.03;;;3.37;;
27895;SDS011;15241;48.374;10.876;2022-07-29T06:02:07;5.17;;;3.33;;
27895;SDS011;15241;48.374;10.876;2022-07-29T06:07:06;6.22;;;3.05;;
27895;SDS011;15241;48.374;10.876;2022-07-29T06:12:06;7.72;;;3.85;;
27895;SDS011;15241;48.374;10.876;2022-07-29T06:17:05;7.35;;;4.05;;
27895;SDS011;15241;48.374;10.876;2022-07-29T06:22:04;5.80;;;3.80;;
27895;SDS011;15241;48.374;10.876;2022-07-29T06:27:03;8.50;;;4.25;;
27895;SDS011;15241;48.374;10.876;2022-07-29T06:32:02;8.78;;;3.60;;
27895;SDS011;15241;48.374;10.876;2022-07-29T06:37:06;8.60;;;4.25;;
27895;SDS011;15241;48.374;10.876;2022-07-29T06:42:05;7.22;;;4.22;;
27895;SDS011;15241;48.374;10.876;2022-07-29T06:47:04;4.67;;;3.90;;
27895;SDS011;15241;48.374;10.876;2022-07-29T06:52:04;9.05;;;4.05;;
27895;SDS011;15241;48.374;10.876;2022-07-29T06:57:03;3.62;;;3.27;;
27895;SDS011;15241;48.374;10.876;2022-07-29T07:02:02;7.37;;;3.60;;
27895;SDS011;15241;48.374;10.876;2022-07-29T07:07:01;6.10;;;3.55;;
27895;SDS011;15241;48.374;10.876;2022-07-29T07:12:00;3.52;;;3.10;;
27895;SDS011;15241;48.374;10.876;2022-07-29T07:16:59;3.05;;;2.75;;
27895;SDS011;15241;48.374;10.876;2022-07-29T07:27:07;3.42;;;2.30;;
27895;SDS011;15241;48.374;10.876;2022-07-29T07:32:06;3.58;;;2.37;;
27895;SDS011;15241;48.374;10.876;2022-07-29T07:37:05;4.95;;;2.02;;
27895;SDS011;15241;48.374;10.876;2022-07-29T07:42:04;4.75;;;2.42;;
27895;SDS011;15241;48.374;10.876;2022-07-29T07:47:03;2.33;;;2.12;;
27895;SDS011;15241;48.374;10.876;2022-07-29T07:52:03;6.35;;;3.10;;
27895;SDS011;15241;48.374;10.876;2022-07-29T07:57:03;5.40;;;2.35;;
27895;SDS011;15241;48.374;10.876;2022-07-29T08:02:02;4.95;;;2.37;;
27895;SDS011;15241;48.374;10.876;2022-07-29T08:07:01;3.47;;;2.30;;
27895;SDS011;15241;48.374;10.876;2022-07-29T08:12:00;3.77;;;1.77;;
27895;SDS011;15241;48.374;10.876;2022-07-29T08:17:00;3.05;;;1.98;;
27895;SDS011;15241;48.374;10.876;2022-07-29T08:21:59;4.25;;;1.85;;
27895;SDS011;15241;48.374;10.876;2022-07-29T08:26:58;3.72;;;2.08;;
27895;SDS011;15241;48.374;10.876;2022-07-29T08:31:57;3.92;;;2.05;;
27895;SDS011;15241;48.374;10.876;2022-07-29T08:36:56;2.77;;;1.80;;
27895;SDS011;15241;48.374;10.876;2022-07-29T08:41:55;2.50;;;2.25;;
27895;SDS011;15241;48.374;10.876;2022-07-29T08:46:54;3.25;;;2.02;;
27895;SDS011;15241;48.374;10.876;2022-07-29T08:51:53;3.52;;;2.62;;
27895;SDS011;15241;48.374;10.876;2022-07-29T08:56:53;3.27;;;2.60;;
27895;SDS011;15241;48.374;10.876;2022-07-29T09:01:53;2.47;;;2.27;;
27895;SDS011;15241;48.374;10.876;2022-07-29T09:06:54;4.00;;;2.45;;
27895;SDS011;15241;48.374;10.876;2022-07-29T09:11:56;3.22;;;2.52;;
27895;SDS011;15241;48.374;10.876;2022-07-29T09:16:58;3.40;;;2.60;;
27895;SDS011;15241;48.374;10.876;2022-07-29T09:21:57;3.30;;;2.47;;
27895;SDS011;15241;48.374;10.876;2022-07-29T09:26:58;3.60;;;2.80;;
27895;SDS011;15241;48.374;10.876;2022-07-29T09:31:58;3.27;;;2.92;;
27895;SDS011;15241;48.374;10.876;2022-07-29T09:36:57;2.92;;;2.62;;
27895;SDS011;15241;48.374;10.876;2022-07-29T09:41:56;2.55;;;2.35;;
27895;SDS011;15241;48.374;10.876;2022-07-29T09:46:58;2.15;;;2.00;;
27895;SDS011;15241;48.374;10.876;2022-07-29T09:52:01;3.10;;;2.37;;
27895;SDS011;15241;48.374;10.876;2022-07-29T09:57:05;2.58;;;2.30;;
27895;SDS011;15241;48.374;10.876;2022-07-29T10:02:11;2.70;;;2.20;;
27895;SDS011;15241;48.374;10.876;2022-07-29T10:07:18;2.70;;;2.42;;
27895;SDS011;15241;48.374;10.876;2022-07-29T10:12:28;3.00;;;2.37;;
27895;SDS011;15241;48.374;10.876;2022-07-29T10:17:28;3.90;;;2.75;;
27895;SDS011;15241;48.374;10.876;2022-07-29T10:22:27;4.45;;;2.25;;
27895;SDS011;15241;48.374;10.876;2022-07-29T10:27:27;3.87;;;2.65;;
27895;SDS011;15241;48.374;10.876;2022-07-29T10:32:30;2.80;;;2.55;;
27895;SDS011;15241;48.374;10.876;2022-07-29T10:37:40;2.80;;;2.22;;
27895;SDS011;15241;48.374;10.876;2022-07-29T10:42:44;3.50;;;2.70;;
27895;SDS011;15241;48.374;10.876;2022-07-29T10:47:43;2.60;;;2.40;;
27895;SDS011;15241;48.374;10.876;2022-07-29T10:52:52;3.67;;;3.30;;
27895;SDS011;15241;48.374;10.876;2022-07-29T10:58:10;3.77;;;3.05;;
27895;SDS011;15241;48.374;10.876;2022-07-29T11:08:44;5.10;;;3.20;;
27895;SDS011;15241;48.374;10.876;2022-07-29T11:13:46;3.85;;;3.05;;
27895;SDS011;15241;48.374;10.876;2022-07-29T11:24:22;3.90;;;3.25;;
27895;SDS011;15241;48.374;10.876;2022-07-29T11:29:23;3.00;;;2.70;;
27895;SDS011;15241;48.374;10.876;2022-07-29T11:34:23;2.87;;;2.67;;
27895;SDS011;15241;48.374;10.876;2022-07-29T11:39:25;3.52;;;2.30;;
27895;SDS011;15241;48.374;10.876;2022-07-29T11:44:33;4.05;;;2.40;;
27895;SDS011;15241;48.374;10.876;2022-07-29T11:49:52;4.12;;;2.15;;
27895;SDS011;15241;48.374;10.876;2022-07-29T11:54:53;2.30;;;2.10;;
27895;SDS011;15241;48.374;10.876;2022-07-29T11:59:54;2.70;;;2.25;;
27895;SDS011;15241;48.374;10.876;2022-07-29T12:04:55;4.87;;;2.40;;
27895;SDS011;15241;48.374;10.876;2022-07-29T12:09:55;3.92;;;2.50;;
27895;SDS011;15241;48.374;10.876;2022-07-29T12:14:54;3.72;;;2.10;;
27895;SDS011;15241;48.374;10.876;2022-07-29T12:19:53;3.62;;;2.27;;
27895;SDS011;15241;48.374;10.876;2022-07-29T12:24:52;7.10;;;2.58;;
27895;SDS011;15241;48.374;10.876;2022-07-29T12:29:57;3.50;;;2.30;;
27895;SDS011;15241;48.374;10.876;2022-07-29T12:34:57;4.08;;;2.40;;
27895;SDS011;15241;48.374;10.876;2022-07-29T12:39:59;5.35;;;2.30;;
27895;SDS011;15241;48.374;10.876;2022-07-29T12:44:59;4.80;;;1.80;;
27895;SDS011;15241;48.374;10.876;2022-07-29T12:50:07;2.87;;;2.40;;
27895;SDS011;15241;48.374;10.876;2022-07-29T12:55:08;3.35;;;2.00;;
27895;SDS011;15241;48.374;10.876;2022-07-29T13:00:09;2.95;;;1.90;;
27895;SDS011;15241;48.374;10.876;2022-07-29T13:05:10;3.90;;;2.27;;
27895;SDS011;15241;48.374;10.876;2022-07-29T13:10:11;4.12;;;2.35;;
27895;SDS011;15241;48.374;10.876;2022-07-29T13:15:14;4.45;;;2.52;;
27895;SDS011;15241;48.374;10.876;2022-07-29T13:20:14;6.05;;;2.27;;
27895;SDS011;15241;48.374;10.876;2022-07-29T13:25:13;3.47;;;2.47;;
27895;SDS011;15241;48.374;10.876;2022-07-29T13:30:13;5.78;;;2.22;;
27895;SDS011;15241;48.374;10.876;2022-07-29T13:35:13;3.35;;;1.80;;
27895;SDS011;15241;48.374;10.876;2022-07-29T13:40:12;6.70;;;2.12;;
27895;SDS011;15241;48.374;10.876;2022-07-29T13:45:11;2.67;;;2.05;;
27895;SDS011;15241;48.374;10.876;2022-07-29T13:50:11;2.10;;;1.98;;
27895;SDS011;15241;48.374;10.876;2022-07-29T13:55:09;2.98;;;1.98;;
27895;SDS011;15241;48.374;10.876;2022-07-29T14:00:09;3.62;;;2.05;;
27895;SDS011;15241;48.374;10.876;2022-07-29T14:05:10;3.95;;;2.17;;
27895;SDS011;15241;48.374;10.876;2022-07-29T14:10:09;2.22;;;1.70;;
27895;SDS011;15241;48.374;10.876;2022-07-29T14:15:09;3.58;;;2.08;;
27895;SDS011;15241;48.374;10.876;2022-07-29T14:20:09;1.80;;;1.70;;
27895;SDS011;15241;48.374;10.876;2022-07-29T14:25:08;5.08;;;1.95;;
27895;SDS011;15241;48.374;10.876;2022-07-29T14:30:09;3.40;;;1.75;;
27895;SDS011;15241;48.374;10.876;2022-07-29T14:35:09;2.37;;;2.13;;
27895;SDS011;15241;48.374;10.876;2022-07-29T14:40:09;1.90;;;1.70;;
27895;SDS011;15241;48.374;10.876;2022-07-29T14:45:09;2.25;;;1.90;;
27895;SDS011;15241;48.374;10.876;2022-07-29T14:50:08;2.33;;;2.00;;
27895;SDS011;15241;48.374;10.876;2022-07-29T14:55:08;3.05;;;1.90;;
27895;SDS011;15241;48.374;10.876;2022-07-29T15:00:08;4.08;;;2.08;;
27895;SDS011;15241;48.374;10.876;2022-07-29T15:05:08;2.75;;;1.82;;
27895;SDS011;15241;48.374;10.876;2022-07-29T15:10:07;5.72;;;2.60;;
27895;SDS011;15241;48.374;10.876;2022-07-29T15:15:07;4.10;;;2.40;;
27895;SDS011;15241;48.374;10.876;2022-07-29T15:20:07;3.87;;;2.25;;
27895;SDS011;15241;48.374;10.876;2022-07-29T15:25:08;5.00;;;2.60;;
27895;SDS011;15241;48.374;10.876;2022-07-29T15:30:09;3.67;;;2.12;;
27895;SDS011;15241;48.374;10.876;2022-07-29T15:35:09;5.80;;;2.85;;
27895;SDS011;15241;48.374;10.876;2022-07-29T15:40:10;3.92;;;2.52;;
27895;SDS011;15241;48.374;10.876;2022-07-29T15:45:10;2.33;;;2.08;;
27895;SDS011;15241;48.374;10.876;2022-07-29T15:50:09;4.05;;;2.15;;
27895;SDS011;15241;48.374;10.876;2022-07-29T15:55:08;4.70;;;2.27;;
27895;SDS011;15241;48.374;10.876;2022-07-29T16:00:08;3.25;;;1.70;;
27895;SDS011;15241;48.374;10.876;2022-07-29T16:05:09;3.42;;;2.20;;
27895;SDS011;15241;48.374;10.876;2022-07-29T16:10:09;2.72;;;1.80;;
27895;SDS011;15241;48.374;10.876;2022-07-29T16:15:08;2.05;;;1.85;;
27895;SDS011;15241;48.374;10.876;2022-07-29T16:20:08;2.25;;;2.05;;
27895;SDS011;15241;48.374;10.876;2022-07-29T16:25:08;5.95;;;2.00;;
27895;SDS011;15241;48.374;10.876;2022-07-29T16:30:08;3.10;;;1.57;;
27895;SDS011;15241;48.374;10.876;2022-07-29T16:35:08;2.15;;;1.80;;
27895;SDS011;15241;48.374;10.876;2022-07-29T16:40:08;3.30;;;1.90;;
27895;SDS011;15241;48.374;10.876;2022-07-29T16:45:09;2.17;;;1.70;;
27895;SDS011;15241;48.374;10.876;2022-07-29T16:50:08;3.58;;;1.90;;
27895;SDS011;15241;48.374;10.876;2022-07-29T16:55:07;4.45;;;2.22;;
27895;SDS011;15241;48.374;10.876;2022-07-29T17:00:07;7.78;;;4.55;;
27895;SDS011;15241;48.374;10.876;2022-07-29T17:05:08;4.55;;;2.52;;
27895;SDS011;15241;48.374;10.876;2022-07-29T17:10:09;3.62;;;1.80;;
27895;SDS011;15241;48.374;10.876;2022-07-29T17:15:09;3.92;;;1.98;;
27895;SDS011;15241;48.374;10.876;2022-07-29T17:20:09;4.70;;;1.85;;
27895;SDS011;15241;48.374;10.876;2022-07-29T17:25:09;3.40;;;2.02;;
27895;SDS011;15241;48.374;10.876;2022-07-29T17:30:08;3.12;;;1.57;;
27895;SDS011;15241;48.374;10.876;2022-07-29T17:35:08;4.83;;;2.98;;
27895;SDS011;15241;48.374;10.876;2022-07-29T17:40:08;3.80;;;2.17;;
27895;SDS011;15241;48.374;10.876;2022-07-29T17:45:08;3.92;;;2.33;;
27895;SDS011;15241;48.374;10.876;2022-07-29T17:50:07;2.80;;;2.00;;
27895;SDS011;15241;48.374;10.876;2022-07-29T17:55:07;2.00;;;1.30;;
27895;SDS011;15241;48.374;10.876;2022-07-29T18:00:07;3.37;;;1.40;;
27895;SDS011;15241;48.374;10.876;2022-07-29T18:05:07;1.98;;;1.22;;
27895;SDS011;15241;48.374;10.876;2022-07-29T18:10:07;2.17;;;1.50;;
27895;SDS011;15241;48.374;10.876;2022-07-29T18:15:06;1.98;;;1.62;;
27895;SDS011;15241;48.374;10.876;2022-07-29T18:20:07;2.67;;;1.37;;
27895;SDS011;15241;48.374;10.876;2022-07-29T18:25:08;1.47;;;1.37;;
27895;SDS011;15241;48.374;10.876;2022-07-29T18:30:08;1.92;;;1.30;;
27895;SDS011;15241;48.374;10.876;2022-07-29T18:35:08;2.25;;;1.40;;
27895;SDS011;15241;48.374;10.876;2022-07-29T18:40:09;2.33;;;1.65;;
27895;SDS011;15241;48.374;10.876;2022-07-29T18:45:09;1.80;;;1.50;;
27895;SDS011;15241;48.374;10.876;2022-07-29T18:50:08;2.00;;;1.80;;
27895;SDS011;15241;48.374;10.876;2022-07-29T18:55:08;2.50;;;1.70;;
27895;SDS011;15241;48.374;10.876;2022-07-29T19:00:09;3.02;;;1.90;;
27895;SDS011;15241;48.374;10.876;2022-07-29T19:05:09;2.10;;;1.70;;
27895;SDS011;15241;48.374;10.876;2022-07-29T19:10:08;3.02;;;2.42;;
27895;SDS011;15241;48.374;10.876;2022-07-29T19:15:08;2.75;;;2.02;;
27895;SDS011;15241;48.374;10.876;2022-07-29T19:20:09;3.95;;;1.80;;
27895;SDS011;15241;48.374;10.876;2022-07-29T19:25:09;3.67;;;2.25;;
27895;SDS011;15241;48.374;10.876;2022-07-29T19:30:08;2.45;;;2.08;;
27895;SDS011;15241;48.374;10.876;2022-07-29T19:35:08;5.42;;;3.17;;
27895;SDS011;15241;48.374;10.876;2022-07-29T19:40:07;2.40;;;2.20;;
27895;SDS011;15241;48.374;10.876;2022-07-29T19:45:07;3.58;;;2.60;;
27895;SDS011;15241;48.374;10.876;2022-07-29T19:50:08;5.83;;;2.98;;
27895;SDS011;15241;48.374;10.876;2022-07-29T19:55:08;6.28;;;3.30;;
27895;SDS011;15241;48.374;10.876;2022-07-29T20:00:08;4.53;;;3.05;;
27895;SDS011;15241;48.374;10.876;2022-07-29T20:05:08;3.10;;;2.80;;
27895;SDS011;15241;48.374;10.876;2022-07-29T20:10:09;3.22;;;2.90;;
27895;SDS011;15241;48.374;10.876;2022-07-29T20:15:11;6.42;;;3.50;;
27895;SDS011;15241;48.374;10.876;2022-07-29T20:20:10;5.35;;;3.35;;
27895;SDS011;15241;48.374;10.876;2022-07-29T20:25:09;4.03;;;3.55;;
27895;SDS011;15241;48.374;10.876;2022-07-29T20:30:14;3.90;;;3.47;;
27895;SDS011;15241;48.374;10.876;2022-07-29T20:35:14;3.90;;;3.60;;
27895;SDS011;15241;48.374;10.876;2022-07-29T20:40:13;5.00;;;3.72;;
27895;SDS011;15241;48.374;10.876;2022-07-29T20:45:12;4.85;;;3.25;;
27895;SDS011;15241;48.374;10.876;2022-07-29T20:50:11;4.85;;;4.35;;
27895;SDS011;15241;48.374;10.876;2022-07-29T20:55:10;4.33;;;3.90;;
27895;SDS011;15241;48.374;10.876;2022-07-29T21:00:09;5.00;;;3.85;;
27895;SDS011;15241;48.374;10.876;2022-07-29T21:05:09;6.10;;;4.17;;
27895;SDS011;15241;48.374;10.876;2022-07-29T21:10:08;6.45;;;4.35;;
27895;SDS011;15241;48.374;10.876;2022-07-29T21:15:08;5.17;;;4.62;;
27895;SDS011;15241;48.374;10.876;2022-07-29T21:20:08;4.70;;;4.20;;
27895;SDS011;15241;48.374;10.876;2022-07-29T21:25:09;4.22;;;3.75;;
27895;SDS011;15241;48.374;10.876;2022-07-29T21:30:08;5.60;;;4.97;;
27895;SDS011;15241;48.374;10.876;2022-07-29T21:35:08;4.95;;;4.45;;
27895;SDS011;15241;48.374;10.876;2022-07-29T21:40:08;9.53;;;5.28;;
27895;SDS011;15241;48.374;10.876;2022-07-29T21:45:09;6.00;;;4.92;;
27895;SDS011;15241;48.374;10.876;2022-07-29T21:50:08;4.78;;;4.35;;
27895;SDS011;15241;48.374;10.876;2022-07-29T21:55:08;5.55;;;5.05;;
27895;SDS011;15241;48.374;10.876;2022-07-29T22:00:08;6.97;;;5.25;;
27895;SDS011;15241;48.374;10.876;2022-07-29T22:05:09;6.10;;;5.03;;
27895;SDS011;15241;48.374;10.876;2022-07-29T22:10:09;8.18;;;4.25;;
27895;SDS011;15241;48.374;10.876;2022-07-29T22:15:08;5.58;;;4.20;;
27895;SDS011;15241;48.374;10.876;2022-07-29T22:20:08;5.33;;;4.47;;
27895;SDS011;15241;48.374;10.876;2022-07-29T22:25:10;5.70;;;4.65;;
27895;SDS011;15241;48.374;10.876;2022-07-29T22:30:09;5.22;;;4.05;;
27895;SDS011;15241;48.374;10.876;2022-07-29T22:35:09;5.22;;;3.67;;
27895;SDS011;15241;48.374;10.876;2022-07-29T22:40:09;4.03;;;3.67;;
27895;SDS011;15241;48.374;10.876;2022-07-29T22:45:09;4.75;;;3.67;;
27895;SDS011;15241;48.374;10.876;2022-07-29T22:50:08;5.58;;;4.05;;
27895;SDS011;15241;48.374;10.876;2022-07-29T22:55:07;5.62;;;3.90;;
27895;SDS011;15241;48.374;10.876;2022-07-29T23:00:08;4.50;;;4.10;;
27895;SDS011;15241;48.374;10.876;2022-07-29T23:05:08;3.50;;;3.20;;
27895;SDS011;15241;48.374;10.876;2022-07-29T23:10:08;3.87;;;3.37;;
27895;SDS011;15241;48.374;10.876;2022-07-29T23:15:08;4.87;;;3.87;;
27895;SDS011;15241;48.374;10.876;2022-07-29T23:20:07;4.03;;;3.35;;
27895;SDS011;15241;48.374;10.876;2022-07-29T23:25:07;4.33;;;3.92;;
27895;SDS011;15241;48.374;10.876;2022-07-29T23:30:07;4.45;;;4.05;;
27895;SDS011;15241;48.374;10.876;2022-07-29T23:35:08;5.03;;;4.15;;
27895;SDS011;15241;48.374;10.876;2022-07-29T23:40:09;3.60;;;3.30;;
27895;SDS011;15241;48.374;10.876;2022-07-29T23:45:09;3.75;;;3.42;;
27895;SDS011;15241;48.374;10.876;2022-07-29T23:50:10;5.67;;;3.67;;
27895;SDS011;15241;48.374;10.876;2022-07-29T23:55:09;3.98;;;3.58;;
